Terminal Aerodrome Forecast
Issued by NWS Hastings, NE

Home | Current Version | Previous Version | Text Only | Print | Product List | Glossary On
Versions: 1 2 3 4 5 6 7 8 9 10 11 12 13 14 15 16 17 18 19 20 21 22 23 24 25 26 27 28 29 30 31 32 33 34 35 36 37 38 39
562
FTUS43 KGID 262332
TAFGRI
TAF
KGRI 262332Z 2700/2724 12013G21KT P6SM VCTS BKN110CB
     FM270400 09009KT P6SM VCTS BKN025CB
     FM271000 05007KT 4SM BR VCTS BKN008CB
     FM271600 06008KT P6SM VCTS BKN015CB=

USA.gov is the U.S. government's official web portal to all federal, state and local government web resources and services.